Startpagina
METAR-TAF:

METAR-TAF

Vliegvelden :

Saskatoon, Saskatchewan, Canada

breedte: 52-10N, lengte: 106-41W, hoogte: 501 m

Actueel weer

Dit bericht is 44 minuten geleden gemaakt, om 10:00 UTC
Wind 7 kt uit het noordwesten
Temperatuur -5°C
Vochtigheid 86%
Druk 1023 hPa
Zicht: 24.1 km
Weinig wolken op 30000 ft

METAR: CYXE 221000Z 31007KT 15SM FEW300 M05/M07 A3022 RMK CI2 SLP259

Tijdstip: 04:44 (10:44 UTC)

Verwachting

Dit bericht is 5 uur en het 6 minuten geleden gemaakt, om 05:38 UTC
Verwachting geldig van 22 om 06 UTC tot 23 om 06 UTC
Wind 8 kt uit het westnoordwesten
Zicht: 10 km
Onbewolkt
Wijzigt naar
van 22 om 10 UTC tot 22 om 12 UTC
Wind 3 kt uit variabele richting
Wijzigt naar
van 22 om 17 UTC tot 22 om 19 UTC
Wind 8 kt uit het zuidoosten

TAF: CYXE 220538Z 2206/2306 30008KT P6SM SKC BECMG 2210/2212 VRB03KT BECMG 2217/2219 14008KT RMK NXT FCST BY 221200Z

Waarnemingen en weersverwachtingen van meer dan 4000 vliegvelden (METAR en TAF).

De beschikbare stations zijn de gele en rode punten op de kaart.

Ga met uw muis naar het station om de naam te zien.

Klik dan om waarnemingen en weersverwachtingen te zien.

kaart wijzigen: klik op de groene knoppen met een zwart kruis om in te zoomen, op de groene knop met een streepje om uit te zoomen of op de groene pijlen voor aangrenzende kaarten.


METAR-TAF: